Time;durP1;ratioP1;P1;durP2;ratioP2;P2;SDS_P1;SDS_P2;PMS_P1;PMS_P2;Temp;Humidity;BMP_temperature;BMP_pressure;BME280_temperature;BME280_humidity;BME280_pressure;Samples;Min_cycle;Max_cycle;Signal;HPM_P1;HPM_P2
2021/10/14 00:01:06;;;;;;;20.77;8.15;;;;;;;;;;4967805;28;20045;-69
2021/10/14 00:03:32;;;;;;;24.83;9.20;;;;;;;;;;4966157;28;20057;-69
2021/10/14 00:05:58;;;;;;;19.52;7.53;;;;;;;;;;4967388;28;20026;-69
2021/10/14 00:08:24;;;;;;;25.00;8.80;;;;;;;;;;4959738;28;20111;-69
2021/10/14 00:10:50;;;;;;;19.48;9.27;;;;;;;;;;4966288;28;20034;-69
2021/10/14 00:13:16;;;;;;;23.30;8.75;;;;;;;;;;4966972;28;20125;-69
2021/10/14 00:15:43;;;;;;;23.75;8.32;;;;;;;;;;4963355;28;20035;-69
2021/10/14 00:18:09;;;;;;;17.83;8.80;;;;;;;;;;4966202;28;20042;-69
2021/10/14 00:20:35;;;;;;;24.73;9.13;;;;;;;;;;4970064;28;20033;-70
2021/10/14 00:23:01;;;;;;;23.35;9.68;;;;;;;;;;4967395;28;20031;-69
2021/10/14 00:25:27;;;;;;;25.48;9.38;;;;;;;;;;4970122;28;20026;-69
2021/10/14 00:27:53;;;;;;;20.98;10.25;;;;;;;;;;4968736;28;20030;-69
2021/10/14 00:30:20;;;;;;;27.98;9.52;;;;;;;;;;4968719;28;20027;-70
2021/10/14 00:32:46;;;;;;;28.25;10.77;;;;;;;;;;4961484;28;20031;-70
2021/10/14 00:35:12;;;;;;;24.85;10.75;;;;;;;;;;4966380;28;20402;-70
2021/10/14 00:37:38;;;;;;;23.48;8.35;;;;;;;;;;4963128;28;20030;-69
2021/10/14 00:40:05;;;;;;;23.08;9.30;;;;;;;;;;4966100;28;20247;-69
2021/10/14 00:42:31;;;;;;;28.65;9.65;;;;;;;;;;4983812;28;20063;-69
2021/10/14 00:44:58;;;;;;;24.88;10.50;;;;;;;;;;4975418;28;20023;-70
2021/10/14 00:47:27;;;;;;;24.27;9.68;;;;;;;;;;4969671;28;20062;-69
2021/10/14 00:49:54;;;;;;;19.83;9.57;;;;;;;;;;4960932;28;20065;-70
2021/10/14 00:52:21;;;;;;;26.60;9.95;;;;;;;;;;4989624;28;20245;-70
2021/10/14 00:54:47;;;;;;;24.75;10.02;;;;;;;;;;4971820;28;20555;-70
2021/10/14 00:57:14;;;;;;;31.83;11.52;;;;;;;;;;4976923;28;20026;-69
2021/10/14 00:59:41;;;;;;;26.85;10.25;;;;;;;;;;4973005;28;20030;-70
2021/10/14 01:02:08;;;;;;;23.23;10.02;;;;;;;;;;4969450;28;20094;-70
2021/10/14 01:04:34;;;;;;;28.15;11.70;;;;;;;;;;4975661;28;20391;-70
2021/10/14 01:07:00;;;;;;;27.33;10.93;;;;;;;;;;4974369;28;20448;-70
2021/10/14 01:09:26;;;;;;;24.58;10.10;;;;;;;;;;4973576;28;20031;-70
2021/10/14 01:11:53;;;;;;;27.05;11.30;;;;;;;;;;4975185;28;20050;-69
2021/10/14 01:14:19;;;;;;;24.88;11.27;;;;;;;;;;4968723;28;20031;-69
2021/10/14 01:16:46;;;;;;;28.08;12.07;;;;;;;;;;4989353;28;20603;-70
2021/10/14 01:19:14;;;;;;;21.02;10.95;;;;;;;;;;4973796;28;20030;-70
2021/10/14 01:21:40;;;;;;;23.52;11.15;;;;;;;;;;4974441;28;20031;-70
2021/10/14 01:24:07;;;;;;;31.60;12.43;;;;;;;;;;4988108;28;20035;-70
2021/10/14 01:26:33;;;;;;;22.00;11.35;;;;;;;;;;4977345;28;20439;-70
2021/10/14 01:28:59;;;;;;;26.35;11.50;;;;;;;;;;4973623;28;20019;-70
2021/10/14 01:31:26;;;;;;;29.33;13.27;;;;;;;;;;4973312;28;20041;-70
2021/10/14 01:33:52;;;;;;;27.33;12.52;;;;;;;;;;4971621;28;20557;-69
2021/10/14 01:36:18;;;;;;;27.20;11.13;;;;;;;;;;4973381;28;20062;-70
2021/10/14 01:38:45;;;;;;;24.52;11.82;;;;;;;;;;4961651;28;20081;-70
2021/10/14 01:41:11;;;;;;;22.67;11.95;;;;;;;;;;4972404;28;20431;-70
2021/10/14 01:43:37;;;;;;;24.58;13.18;;;;;;;;;;4969779;28;20062;-70
2021/10/14 01:46:04;;;;;;;28.55;13.80;;;;;;;;;;4968942;28;20030;-70
2021/10/14 01:48:30;;;;;;;33.35;15.50;;;;;;;;;;4965742;28;20058;-70
2021/10/14 01:50:57;;;;;;;31.17;16.40;;;;;;;;;;4988603;28;20035;-69
2021/10/14 01:53:23;;;;;;;38.83;16.60;;;;;;;;;;4971601;28;20027;-70
2021/10/14 01:55:50;;;;;;;33.90;16.40;;;;;;;;;;4963371;28;20034;-69
2021/10/14 01:58:16;;;;;;;34.38;15.93;;;;;;;;;;4962076;28;20459;-70
2021/10/14 02:00:42;;;;;;;29.80;15.60;;;;;;;;;;4987017;28;20030;-70
2021/10/14 02:03:08;;;;;;;34.28;17.17;;;;;;;;;;4966681;28;20043;-70
2021/10/14 02:05:34;;;;;;;41.95;16.73;;;;;;;;;;4963929;28;20026;-69
2021/10/14 02:08:00;;;;;;;38.22;18.45;;;;;;;;;;4964174;28;20022;-69
2021/10/14 02:10:26;;;;;;;32.50;17.88;;;;;;;;;;4960563;28;20463;-70
2021/10/14 02:12:53;;;;;;;37.00;17.27;;;;;;;;;;4966205;28;20396;-69
2021/10/14 02:15:19;;;;;;;43.88;18.42;;;;;;;;;;4965715;28;20270;-69
2021/10/14 02:17:45;;;;;;;44.72;21.33;;;;;;;;;;4972120;28;20478;-69
2021/10/14 02:20:11;;;;;;;37.70;20.30;;;;;;;;;;4968915;28;21260;-69
2021/10/14 02:22:37;;;;;;;38.97;19.75;;;;;;;;;;4965273;28;20435;-70
2021/10/14 02:25:04;;;;;;;46.63;21.23;;;;;;;;;;4965982;28;20106;-70
2021/10/14 02:27:30;;;;;;;35.63;20.95;;;;;;;;;;4972521;28;20046;-69
2021/10/14 02:29:56;;;;;;;40.47;21.45;;;;;;;;;;4969790;28;20499;-70
2021/10/14 02:32:23;;;;;;;41.25;20.67;;;;;;;;;;4964917;28;20054;-70
2021/10/14 02:34:49;;;;;;;41.30;23.52;;;;;;;;;;4969990;28;20082;-69
2021/10/14 02:37:15;;;;;;;44.90;20.20;;;;;;;;;;4961306;28;20038;-69
2021/10/14 02:39:41;;;;;;;38.92;21.25;;;;;;;;;;4965340;28;20035;-70
2021/10/14 02:42:07;;;;;;;42.05;21.02;;;;;;;;;;4961613;28;20023;-70
2021/10/14 02:44:33;;;;;;;43.15;20.25;;;;;;;;;;4956937;28;20042;-70
2021/10/14 02:46:59;;;;;;;47.88;22.27;;;;;;;;;;4961841;28;20030;-70
2021/10/14 02:49:25;;;;;;;40.75;22.02;;;;;;;;;;4961616;28;20026;-69
2021/10/14 02:51:51;;;;;;;45.88;23.25;;;;;;;;;;4977404;28;20031;-69
2021/10/14 02:54:17;;;;;;;45.45;22.38;;;;;;;;;;4966415;28;20011;-70
2021/10/14 02:56:43;;;;;;;36.63;22.85;;;;;;;;;;4971162;28;20031;-70
2021/10/14 02:59:11;;;;;;;57.42;25.15;;;;;;;;;;4969963;28;20032;-70
2021/10/14 03:01:37;;;;;;;37.80;21.52;;;;;;;;;;4970574;28;20102;-70
2021/10/14 03:04:03;;;;;;;43.63;22.75;;;;;;;;;;4959551;28;20129;-70
2021/10/14 03:06:29;;;;;;;41.80;20.55;;;;;;;;;;4963617;28;20475;-70
2021/10/14 03:08:55;;;;;;;40.15;21.65;;;;;;;;;;4958362;28;20102;-70
2021/10/14 03:11:21;;;;;;;51.65;21.48;;;;;;;;;;4964425;28;20042;-70
2021/10/14 03:13:47;;;;;;;38.10;21.30;;;;;;;;;;4965014;28;20484;-70
2021/10/14 03:16:13;;;;;;;39.20;18.73;;;;;;;;;;4964559;28;20034;-70
2021/10/14 03:18:40;;;;;;;36.05;17.85;;;;;;;;;;4958935;28;20047;-70
2021/10/14 03:21:06;;;;;;;42.20;21.58;;;;;;;;;;4960864;28;20085;-70
2021/10/14 03:23:32;;;;;;;49.88;22.05;;;;;;;;;;4984077;28;20065;-70
2021/10/14 03:25:58;;;;;;;42.33;22.80;;;;;;;;;;4964977;28;20460;-69
2021/10/14 03:28:24;;;;;;;48.47;22.05;;;;;;;;;;4968240;28;20011;-70
2021/10/14 03:30:50;;;;;;;43.95;22.58;;;;;;;;;;4969449;28;20188;-70
2021/10/14 03:33:16;;;;;;;39.47;22.90;;;;;;;;;;4960863;28;20035;-70
2021/10/14 03:35:42;;;;;;;43.88;22.83;;;;;;;;;;4955355;28;20381;-69
2021/10/14 03:38:08;;;;;;;47.17;22.60;;;;;;;;;;4968304;28;20684;-70
2021/10/14 03:40:34;;;;;;;44.42;22.70;;;;;;;;;;4957574;28;20389;-70
2021/10/14 03:43:00;;;;;;;38.15;21.17;;;;;;;;;;4963365;28;20471;-70
2021/10/14 03:45:27;;;;;;;38.40;20.63;;;;;;;;;;4959061;28;20027;-70
2021/10/14 03:47:53;;;;;;;45.13;21.60;;;;;;;;;;4960120;28;20031;-70
2021/10/14 03:50:19;;;;;;;39.17;19.95;;;;;;;;;;4968510;28;20038;-70
2021/10/14 03:52:45;;;;;;;44.90;20.33;;;;;;;;;;4956868;28;20598;-70
2021/10/14 03:55:11;;;;;;;44.83;19.50;;;;;;;;;;4965422;28;20027;-70
2021/10/14 03:57:37;;;;;;;38.80;19.23;;;;;;;;;;4971729;28;20078;-70
2021/10/14 04:00:04;;;;;;;36.50;18.08;;;;;;;;;;4975999;28;20025;-70
2021/10/14 04:02:30;;;;;;;43.38;19.52;;;;;;;;;;4967046;28;20047;-70
2021/10/14 04:04:56;;;;;;;40.95;19.40;;;;;;;;;;4966398;28;20057;-70
2021/10/14 04:07:22;;;;;;;40.00;18.70;;;;;;;;;;4985915;28;20045;-70
2021/10/14 04:09:48;;;;;;;35.28;19.45;;;;;;;;;;4962609;28;20018;-69
2021/10/14 04:12:14;;;;;;;38.17;19.85;;;;;;;;;;4956213;28;20034;-70
2021/10/14 04:14:40;;;;;;;42.78;21.05;;;;;;;;;;4971018;28;20046;-70
2021/10/14 04:17:06;;;;;;;43.35;21.45;;;;;;;;;;4968991;28;20027;-70
2021/10/14 04:19:32;;;;;;;36.22;20.48;;;;;;;;;;4964974;28;20045;-70
2021/10/14 04:21:59;;;;;;;39.67;19.15;;;;;;;;;;4959708;28;20381;-70
2021/10/14 04:24:27;;;;;;;42.33;18.13;;;;;;;;;;4970022;28;20023;-70
2021/10/14 04:26:53;;;;;;;37.17;19.50;;;;;;;;;;4982074;28;20034;-70
2021/10/14 04:29:19;;;;;;;39.63;20.88;;;;;;;;;;4965924;28;20031;-70
2021/10/14 04:31:45;;;;;;;38.63;17.67;;;;;;;;;;4969167;28;20034;-70
2021/10/14 04:34:11;;;;;;;39.35;20.13;;;;;;;;;;4969515;28;20038;-70
2021/10/14 04:36:38;;;;;;;42.97;21.65;;;;;;;;;;4979710;28;20031;-70
2021/10/14 04:39:04;;;;;;;45.17;21.35;;;;;;;;;;4965384;28;20022;-70
2021/10/14 04:41:30;;;;;;;40.10;19.10;;;;;;;;;;4966874;28;20019;-70
2021/10/14 04:43:56;;;;;;;39.25;20.10;;;;;;;;;;4966782;28;20051;-70
2021/10/14 04:46:22;;;;;;;40.35;18.92;;;;;;;;;;4964800;28;20027;-70
2021/10/14 04:48:49;;;;;;;37.47;19.20;;;;;;;;;;4966890;28;20491;-70
2021/10/14 04:51:15;;;;;;;38.63;19.98;;;;;;;;;;4971785;28;20394;-70
2021/10/14 04:53:41;;;;;;;38.35;19.15;;;;;;;;;;4970486;28;20027;-70
2021/10/14 04:56:07;;;;;;;38.67;19.17;;;;;;;;;;4979746;28;20066;-70
2021/10/14 04:58:33;;;;;;;36.38;18.33;;;;;;;;;;4969483;28;20031;-69
2021/10/14 05:00:59;;;;;;;36.05;19.55;;;;;;;;;;4971792;28;20033;-69
2021/10/14 05:03:25;;;;;;;37.33;18.48;;;;;;;;;;4968875;28;20073;-70
2021/10/14 05:05:51;;;;;;;36.25;19.00;;;;;;;;;;5054025;23;20058;-74
2021/10/14 05:08:18;;;;;;;37.53;19.50;;;;;;;;;;4986306;28;20034;-73
2021/10/14 05:10:44;;;;;;;35.40;17.58;;;;;;;;;;4996743;28;20117;-74
2021/10/14 05:13:10;;;;;;;38.40;19.70;;;;;;;;;;5004502;28;20029;-73
2021/10/14 05:15:39;;;;;;;33.85;19.55;;;;;;;;;;4981767;28;20788;-73
2021/10/14 05:18:05;;;;;;;35.95;18.83;;;;;;;;;;4997567;28;20151;-73
2021/10/14 05:20:31;;;;;;;36.63;19.85;;;;;;;;;;4991228;28;20033;-73
2021/10/14 05:22:57;;;;;;;41.00;21.38;;;;;;;;;;4986165;28;20555;-74
2021/10/14 05:25:24;;;;;;;41.67;21.90;;;;;;;;;;5005373;28;20041;-74
2021/10/14 05:27:50;;;;;;;46.63;22.90;;;;;;;;;;4999184;23;20150;-70
2021/10/14 05:30:16;;;;;;;42.85;23.45;;;;;;;;;;4987727;28;20521;-70
2021/10/14 05:32:42;;;;;;;45.67;24.30;;;;;;;;;;4992632;28;20391;-69
2021/10/14 05:35:09;;;;;;;46.97;24.10;;;;;;;;;;5070815;23;20116;-74
2021/10/14 05:37:35;;;;;;;39.35;23.45;;;;;;;;;;5009445;28;20400;-74
2021/10/14 05:40:01;;;;;;;46.45;24.25;;;;;;;;;;5008629;28;20207;-74
2021/10/14 05:42:27;;;;;;;50.63;25.38;;;;;;;;;;5010955;28;20415;-74
2021/10/14 05:47:21;;;;;;;40.78;23.25;;;;;;;;;;4972629;28;20046;-70
2021/10/14 05:49:47;;;;;;;44.90;25.05;;;;;;;;;;4970717;28;20574;-70
2021/10/14 05:52:13;;;;;;;53.97;26.02;;;;;;;;;;5079417;22;20058;-74
2021/10/14 05:54:39;;;;;;;52.67;27.08;;;;;;;;;;5001426;28;20026;-75
2021/10/14 05:57:06;;;;;;;42.35;23.08;;;;;;;;;;5003645;28;20042;-74
2021/10/14 05:59:32;;;;;;;48.88;26.67;;;;;;;;;;5001095;28;20026;-74
2021/10/14 06:01:58;;;;;;;46.05;24.80;;;;;;;;;;5004245;28;20026;-74
2021/10/14 06:04:24;;;;;;;54.35;28.35;;;;;;;;;;5003699;28;20030;-74
2021/10/14 06:06:50;;;;;;;44.30;25.88;;;;;;;;;;5000508;28;20026;-74
2021/10/14 06:09:16;;;;;;;52.67;26.38;;;;;;;;;;4987664;28;20096;-75
2021/10/14 06:11:42;;;;;;;49.13;25.52;;;;;;;;;;5000747;28;20049;-74
2021/10/14 06:14:08;;;;;;;48.30;26.25;;;;;;;;;;5002200;28;20034;-74
2021/10/14 06:16:34;;;;;;;52.30;27.20;;;;;;;;;;4994951;28;20030;-74
2021/10/14 06:19:00;;;;;;;55.33;27.25;;;;;;;;;;5000281;28;20073;-74
2021/10/14 06:21:26;;;;;;;46.15;25.15;;;;;;;;;;4994356;28;20397;-74
2021/10/14 06:23:52;;;;;;;48.20;24.88;;;;;;;;;;4998865;28;20467;-74
2021/10/14 06:26:18;;;;;;;46.47;25.08;;;;;;;;;;4999038;28;20488;-75
2021/10/14 06:28:44;;;;;;;48.58;25.15;;;;;;;;;;4989768;28;20018;-74
2021/10/14 06:31:10;;;;;;;53.42;27.60;;;;;;;;;;5011115;28;20034;-74
2021/10/14 06:33:37;;;;;;;49.70;25.55;;;;;;;;;;4999143;28;20021;-75
2021/10/14 06:36:03;;;;;;;58.80;28.10;;;;;;;;;;4995839;28;20022;-74
2021/10/14 06:38:29;;;;;;;50.67;25.65;;;;;;;;;;5000074;28;20258;-75
2021/10/14 06:40:55;;;;;;;51.45;26.83;;;;;;;;;;4998197;28;20510;-75
2021/10/14 06:43:21;;;;;;;57.55;27.58;;;;;;;;;;5005452;28;20500;-74
2021/10/14 06:45:47;;;;;;;58.97;32.65;;;;;;;;;;4998831;28;20037;-74
2021/10/14 06:48:13;;;;;;;55.35;30.13;;;;;;;;;;4998879;28;20108;-74
2021/10/14 06:50:39;;;;;;;60.92;30.58;;;;;;;;;;5002347;28;20098;-74
2021/10/14 06:53:08;;;;;;;50.80;28.77;;;;;;;;;;5006091;28;20058;-74
2021/10/14 06:55:35;;;;;;;59.10;29.15;;;;;;;;;;5001810;28;20117;-74
2021/10/14 06:58:01;;;;;;;59.38;27.63;;;;;;;;;;4998854;28;20405;-74
2021/10/14 07:00:27;;;;;;;58.08;27.90;;;;;;;;;;5004219;28;20053;-74
2021/10/14 07:02:53;;;;;;;49.22;24.20;;;;;;;;;;5000142;28;20026;-74
2021/10/14 07:05:20;;;;;;;57.28;27.00;;;;;;;;;;5007065;28;20025;-74
2021/10/14 07:07:46;;;;;;;52.95;25.67;;;;;;;;;;5002649;28;20022;-75
2021/10/14 07:10:12;;;;;;;53.85;25.23;;;;;;;;;;4995941;28;20029;-75
2021/10/14 07:12:40;;;;;;;53.80;24.95;;;;;;;;;;5000749;28;20097;-74
2021/10/14 07:15:07;;;;;;;45.40;22.60;;;;;;;;;;5000737;28;20038;-74
2021/10/14 07:17:34;;;;;;;48.03;23.85;;;;;;;;;;4997158;28;20061;-74
2021/10/14 07:20:00;;;;;;;43.95;22.48;;;;;;;;;;4987873;28;20030;-74
2021/10/14 07:22:26;;;;;;;46.03;21.80;;;;;;;;;;5004876;28;20088;-74
2021/10/14 07:24:52;;;;;;;44.53;23.42;;;;;;;;;;4992732;28;20041;-74
2021/10/14 07:27:18;;;;;;;45.28;22.90;;;;;;;;;;4995353;28;20026;-75
2021/10/14 07:29:44;;;;;;;47.42;25.00;;;;;;;;;;4988563;28;20030;-74
2021/10/14 07:32:10;;;;;;;57.00;27.25;;;;;;;;;;5003226;28;20029;-73
2021/10/14 07:34:37;;;;;;;56.15;27.92;;;;;;;;;;4997238;28;20026;-75
2021/10/14 07:37:04;;;;;;;63.70;31.10;;;;;;;;;;5000690;28;20041;-75
2021/10/14 07:39:30;;;;;;;60.30;29.60;;;;;;;;;;4997242;28;20208;-75
2021/10/14 07:41:57;;;;;;;52.67;29.40;;;;;;;;;;5000307;28;20027;-74
2021/10/14 07:44:23;;;;;;;55.20;28.80;;;;;;;;;;5000617;28;20033;-76
2021/10/14 07:46:49;;;;;;;58.50;29.63;;;;;;;;;;4998030;28;20019;-74
2021/10/14 07:49:16;;;;;;;58.92;32.38;;;;;;;;;;4998522;28;20022;-75
2021/10/14 07:51:42;;;;;;;58.60;31.33;;;;;;;;;;5005021;28;20023;-74
2021/10/14 07:54:08;;;;;;;60.30;32.75;;;;;;;;;;5003885;28;20042;-74
2021/10/14 07:56:35;;;;;;;65.53;33.13;;;;;;;;;;5002018;28;20025;-75
2021/10/14 07:59:01;;;;;;;65.10;35.35;;;;;;;;;;4992800;28;20121;-73
2021/10/14 08:01:27;;;;;;;62.65;33.95;;;;;;;;;;5002784;28;20025;-74
2021/10/14 08:03:53;;;;;;;62.72;33.55;;;;;;;;;;5005130;28;20030;-75
2021/10/14 08:06:19;;;;;;;62.58;34.10;;;;;;;;;;4993910;28;20145;-74
2021/10/14 08:08:45;;;;;;;68.65;36.72;;;;;;;;;;4989106;28;20034;-74
2021/10/14 08:11:11;;;;;;;65.57;35.35;;;;;;;;;;4993570;28;20109;-74
2021/10/14 08:13:38;;;;;;;57.40;33.20;;;;;;;;;;5005471;28;20033;-75
2021/10/14 08:16:04;;;;;;;60.55;33.83;;;;;;;;;;4998340;28;20030;-75
2021/10/14 08:18:31;;;;;;;60.30;32.97;;;;;;;;;;4999213;28;20026;-74
2021/10/14 08:20:57;;;;;;;59.78;33.28;;;;;;;;;;4992517;28;20034;-74
2021/10/14 08:23:27;;;;;;;61.92;35.08;;;;;;;;;;5004888;28;20072;-74
2021/10/14 08:25:54;;;;;;;62.60;34.72;;;;;;;;;;4993501;28;20026;-74
2021/10/14 08:28:20;;;;;;;58.58;33.28;;;;;;;;;;5002069;28;20025;-74
2021/10/14 08:30:47;;;;;;;62.20;34.13;;;;;;;;;;4994732;28;20396;-78
2021/10/14 08:33:14;;;;;;;60.63;35.92;;;;;;;;;;4990755;28;20125;-74
2021/10/14 08:35:41;;;;;;;69.50;35.70;;;;;;;;;;4987955;28;20396;-74
2021/10/14 08:38:08;;;;;;;66.35;36.70;;;;;;;;;;4986437;28;20784;-75
2021/10/14 08:40:34;;;;;;;66.72;34.88;;;;;;;;;;4988674;28;20027;-75
2021/10/14 08:43:01;;;;;;;68.97;37.78;;;;;;;;;;4994003;28;20205;-73
2021/10/14 08:45:28;;;;;;;56.03;35.22;;;;;;;;;;4993990;28;20685;-75
2021/10/14 08:47:54;;;;;;;69.30;37.20;;;;;;;;;;5014819;28;20025;-75
2021/10/14 08:50:20;;;;;;;63.22;36.75;;;;;;;;;;4992175;28;20029;-75
2021/10/14 08:52:46;;;;;;;57.60;35.35;;;;;;;;;;4988137;28;20480;-75
2021/10/14 08:55:13;;;;;;;69.40;36.25;;;;;;;;;;4982679;28;20026;-74
2021/10/14 08:57:39;;;;;;;61.40;36.17;;;;;;;;;;4984442;28;20129;-74
2021/10/14 09:00:05;;;;;;;64.38;35.85;;;;;;;;;;4980687;28;20026;-74
2021/10/14 09:02:33;;;;;;;64.03;33.80;;;;;;;;;;4985892;28;20030;-74
2021/10/14 09:05:06;;;;;;;62.00;32.88;;;;;;;;;;4987583;28;20393;-75
2021/10/14 09:07:32;;;;;;;57.97;31.05;;;;;;;;;;4988553;28;20034;-73
2021/10/14 09:10:12;;;;;;;56.58;29.75;;;;;;;;;;4983186;28;20033;-74
2021/10/14 09:12:39;;;;;;;53.00;28.38;;;;;;;;;;4987647;28;20030;-74
2021/10/14 09:15:07;;;;;;;49.97;26.85;;;;;;;;;;4999062;28;20444;-75
2021/10/14 09:17:39;;;;;;;53.10;28.67;;;;;;;;;;5005791;28;20025;-74
2021/10/14 09:20:24;;;;;;;46.47;26.13;;;;;;;;;;5002755;28;20046;-77
2021/10/14 09:23:02;;;;;;;51.08;23.42;;;;;;;;;;4999709;28;20285;-75
2021/10/14 09:25:29;;;;;;;44.58;24.95;;;;;;;;;;5011136;28;20388;-73
2021/10/14 09:28:07;;;;;;;47.45;23.38;;;;;;;;;;4995110;28;20057;-74
2021/10/14 09:30:36;;;;;;;44.35;23.23;;;;;;;;;;4989167;28;20124;-75
2021/10/14 09:33:02;;;;;;;41.53;22.40;;;;;;;;;;4993123;28;20026;-73
2021/10/14 09:35:28;;;;;;;44.95;21.80;;;;;;;;;;4985646;28;20412;-75
2021/10/14 09:37:54;;;;;;;46.55;23.35;;;;;;;;;;4994652;28;20026;-74
2021/10/14 09:40:26;;;;;;;50.35;24.85;;;;;;;;;;5000602;28;20032;-74
2021/10/14 09:42:58;;;;;;;48.45;25.30;;;;;;;;;;4997938;28;20034;-74
2021/10/14 09:45:27;;;;;;;47.47;25.23;;;;;;;;;;4998226;28;20046;-75
2021/10/14 09:48:07;;;;;;;48.58;25.70;;;;;;;;;;5004189;28;20532;-74
2021/10/14 09:50:44;;;;;;;50.00;25.00;;;;;;;;;;4998390;28;20478;-73
2021/10/14 09:53:12;;;;;;;49.05;25.58;;;;;;;;;;5009570;28;20100;-75
2021/10/14 09:55:38;;;;;;;42.97;23.00;;;;;;;;;;4989617;28;20393;-75
2021/10/14 09:58:05;;;;;;;43.10;22.83;;;;;;;;;;4985431;28;20045;-76
2021/10/14 10:00:31;;;;;;;44.85;22.90;;;;;;;;;;4984924;28;20045;-75
2021/10/14 10:02:59;;;;;;;49.33;24.58;;;;;;;;;;4984858;28;20028;-75
2021/10/14 10:05:25;;;;;;;44.28;22.45;;;;;;;;;;4986490;28;20118;-75
2021/10/14 10:07:52;;;;;;;44.13;24.20;;;;;;;;;;4986581;28;20026;-76
2021/10/14 10:10:20;;;;;;;49.05;22.95;;;;;;;;;;4985453;28;21938;-76
2021/10/14 10:12:47;;;;;;;40.53;22.20;;;;;;;;;;4985837;28;20658;-76
2021/10/14 10:15:13;;;;;;;33.63;21.15;;;;;;;;;;4988525;28;20475;-74
2021/10/14 10:17:40;;;;;;;42.50;21.98;;;;;;;;;;4991114;28;20742;-74
2021/10/14 10:20:07;;;;;;;39.13;20.05;;;;;;;;;;4996502;28;20026;-75
2021/10/14 10:22:36;;;;;;;37.22;20.25;;;;;;;;;;4994533;28;20049;-75
2021/10/14 10:25:18;;;;;;;46.17;21.80;;;;;;;;;;5005436;28;20033;-74
2021/10/14 10:27:45;;;;;;;36.22;19.50;;;;;;;;;;4995060;28;20037;-74
2021/10/14 10:30:25;;;;;;;31.83;18.77;;;;;;;;;;4980499;28;20559;-73
2021/10/14 10:32:51;;;;;;;35.25;19.58;;;;;;;;;;5005570;28;20038;-79
2021/10/14 10:35:38;;;;;;;40.05;19.75;;;;;;;;;;4998247;28;20401;-75
2021/10/14 10:38:14;;;;;;;35.83;18.38;;;;;;;;;;4993373;28;20296;-75
2021/10/14 10:40:40;;;;;;;30.95;16.80;;;;;;;;;;4988403;28;20025;-75
2021/10/14 10:43:11;;;;;;;35.72;17.17;;;;;;;;;;4990304;28;20030;-74
2021/10/14 10:45:45;;;;;;;32.17;17.77;;;;;;;;;;4996473;28;20094;-73
2021/10/14 10:48:12;;;;;;;32.67;18.05;;;;;;;;;;4991663;28;20660;-75
2021/10/14 10:50:41;;;;;;;31.77;16.55;;;;;;;;;;4990598;28;20018;-73
2021/10/14 10:53:12;;;;;;;35.05;17.85;;;;;;;;;;4986212;28;20076;-75
2021/10/14 10:55:38;;;;;;;31.52;17.38;;;;;;;;;;4984801;28;20030;-74
2021/10/14 10:58:07;;;;;;;27.30;16.08;;;;;;;;;;4983578;28;20023;-76
2021/10/14 11:00:33;;;;;;;29.98;15.18;;;;;;;;;;4983878;28;20400;-73
2021/10/14 11:03:08;;;;;;;28.73;15.60;;;;;;;;;;4986659;28;20088;-74
2021/10/14 11:05:40;;;;;;;34.28;15.85;;;;;;;;;;4985953;28;20428;-75
2021/10/14 11:08:10;;;;;;;26.27;15.48;;;;;;;;;;4985114;28;20404;-74
2021/10/14 11:10:36;;;;;;;29.65;15.07;;;;;;;;;;4990481;28;20022;-75
2021/10/14 11:13:02;;;;;;;26.00;14.80;;;;;;;;;;4989911;28;20381;-78
2021/10/14 11:15:28;;;;;;;30.88;14.32;;;;;;;;;;4997492;28;20140;-75
2021/10/14 11:18:01;;;;;;;26.92;15.98;;;;;;;;;;4992293;28;20053;-76
2021/10/14 11:20:27;;;;;;;28.10;14.93;;;;;;;;;;4992502;28;20113;-76
2021/10/14 11:23:00;;;;;;;26.42;14.00;;;;;;;;;;5005867;28;20034;-74
2021/10/14 11:25:26;;;;;;;22.60;14.00;;;;;;;;;;4992793;28;20033;-75
2021/10/14 11:28:03;;;;;;;25.90;14.50;;;;;;;;;;4993304;28;20034;-75
2021/10/14 11:30:38;;;;;;;23.02;12.80;;;;;;;;;;4998492;28;20489;-75
2021/10/14 11:33:10;;;;;;;25.95;14.35;;;;;;;;;;5001560;28;20375;-75
2021/10/14 11:35:37;;;;;;;21.50;12.68;;;;;;;;;;4999468;28;20053;-75
2021/10/14 11:38:07;;;;;;;16.35;10.38;;;;;;;;;;4987165;28;20125;-74
2021/10/14 11:40:34;;;;;;;22.45;13.07;;;;;;;;;;5002049;28;20435;-77
2021/10/14 11:43:00;;;;;;;19.08;11.98;;;;;;;;;;4990564;28;20592;-76
2021/10/14 11:45:26;;;;;;;23.13;11.30;;;;;;;;;;5000956;28;20546;-76
2021/10/14 11:47:52;;;;;;;19.48;10.35;;;;;;;;;;5000809;28;20038;-77
2021/10/14 11:50:24;;;;;;;18.10;11.27;;;;;;;;;;5001999;28;20022;-76
2021/10/14 11:53:04;;;;;;;23.83;12.63;;;;;;;;;;4993190;28;20054;-75
2021/10/14 11:55:30;;;;;;;21.20;13.45;;;;;;;;;;4987580;28;20034;-76
2021/10/14 11:57:57;;;;;;;24.48;12.60;;;;;;;;;;4991564;28;20047;-76
2021/10/14 12:00:23;;;;;;;22.20;12.30;;;;;;;;;;4989549;28;20089;-77
2021/10/14 12:02:49;;;;;;;24.10;12.00;;;;;;;;;;4984648;28;20658;-75
2021/10/14 12:05:16;;;;;;;27.33;14.35;;;;;;;;;;4984591;28;20038;-75
2021/10/14 12:07:43;;;;;;;26.05;12.77;;;;;;;;;;4986683;28;20435;-75
2021/10/14 12:10:29;;;;;;;28.58;13.35;;;;;;;;;;4986298;28;20022;-76
2021/10/14 12:13:01;;;;;;;22.95;12.77;;;;;;;;;;4989728;28;20042;-76
2021/10/14 12:15:27;;;;;;;;;;;;;;;;;;4995902;28;20022;-75
2021/10/14 12:17:53;;;;;;;26.77;12.63;;;;;;;;;;5015531;28;20408;-79
2021/10/14 12:20:20;;;;;;;20.25;10.40;;;;;;;;;;4989064;28;20524;-74
2021/10/14 12:22:51;;;;;;;23.73;10.75;;;;;;;;;;4999211;28;20029;-72
2021/10/14 12:25:40;;;;;;;20.10;10.75;;;;;;;;;;4995776;28;20103;-76
2021/10/14 12:28:10;;;;;;;18.33;9.02;;;;;;;;;;4998436;28;20033;-77
2021/10/14 12:30:40;;;;;;;17.58;9.77;;;;;;;;;;4997197;28;20113;-76
2021/10/14 12:33:12;;;;;;;19.38;8.60;;;;;;;;;;5001683;28;20037;-76
2021/10/14 12:35:51;;;;;;;16.55;9.10;;;;;;;;;;4990947;28;20080;-76
2021/10/14 12:38:18;;;;;;;14.70;7.20;;;;;;;;;;4984499;28;20048;-74
2021/10/14 12:41:01;;;;;;;16.90;8.48;;;;;;;;;;4997710;28;20046;-77
2021/10/14 12:43:35;;;;;;;19.27;9.60;;;;;;;;;;5001182;28;20046;-74
2021/10/14 12:46:17;;;;;;;19.02;8.15;;;;;;;;;;4987783;28;20030;-76
2021/10/14 12:48:54;;;;;;;19.30;10.25;;;;;;;;;;4990129;28;20027;-75
2021/10/14 12:51:29;;;;;;;20.55;11.00;;;;;;;;;;4984927;28;20033;-73
2021/10/14 12:53:56;;;;;;;24.20;10.93;;;;;;;;;;4983138;28;20039;-74
2021/10/14 12:56:32;;;;;;;21.48;10.38;;;;;;;;;;4980677;28;20141;-74
2021/10/14 12:59:03;;;;;;;22.90;12.98;;;;;;;;;;4988003;28;20057;-74
2021/10/14 13:01:29;;;;;;;20.75;10.80;;;;;;;;;;5000130;28;20030;-74
2021/10/14 13:03:55;;;;;;;22.38;11.38;;;;;;;;;;5000919;28;20030;-74
2021/10/14 13:06:22;;;;;;;18.05;9.73;;;;;;;;;;4982885;28;20034;-73
2021/10/14 13:08:48;;;;;;;20.60;10.63;;;;;;;;;;4980715;28;20105;-74
2021/10/14 13:11:15;;;;;;;19.13;9.32;;;;;;;;;;4984091;28;20121;-76
2021/10/14 13:13:43;;;;;;;18.40;9.07;;;;;;;;;;4985006;28;20535;-76
2021/10/14 13:16:10;;;;;;;18.70;9.60;;;;;;;;;;4982147;28;20040;-73
2021/10/14 13:18:36;;;;;;;16.77;9.32;;;;;;;;;;4982594;28;20033;-76
2021/10/14 13:21:03;;;;;;;17.10;10.60;;;;;;;;;;4982177;28;20520;-76
2021/10/14 13:23:29;;;;;;;14.77;8.85;;;;;;;;;;4996773;28;20070;-78
2021/10/14 13:25:56;;;;;;;21.52;9.68;;;;;;;;;;4983736;28;20029;-75
2021/10/14 13:28:25;;;;;;;27.77;10.55;;;;;;;;;;4997557;28;20022;-74
2021/10/14 13:30:51;;;;;;;15.18;8.68;;;;;;;;;;4989124;28;20061;-74
2021/10/14 13:33:20;;;;;;;16.20;9.82;;;;;;;;;;4999029;28;20034;-74
2021/10/14 13:35:46;;;;;;;13.20;8.68;;;;;;;;;;4982119;28;20030;-75
2021/10/14 13:38:16;;;;;;;14.80;9.07;;;;;;;;;;4982464;28;20311;-75
2021/10/14 13:40:47;;;;;;;18.77;9.00;;;;;;;;;;4984019;28;20031;-75
2021/10/14 13:43:18;;;;;;;16.40;9.32;;;;;;;;;;4982100;28;20031;-73
2021/10/14 13:45:44;;;;;;;22.30;11.82;;;;;;;;;;4982486;28;20038;-74
2021/10/14 13:48:10;;;;;;;16.88;9.85;;;;;;;;;;4981634;28;20061;-76
2021/10/14 13:50:36;;;;;;;22.50;10.48;;;;;;;;;;5000157;28;20507;-75
2021/10/14 13:53:02;;;;;;;20.35;9.45;;;;;;;;;;4989361;28;20050;-75
2021/10/14 13:55:28;;;;;;;25.67;9.77;;;;;;;;;;4987327;28;20515;-74
2021/10/14 13:57:54;;;;;;;15.82;8.35;;;;;;;;;;4990824;28;20816;-76
2021/10/14 14:00:20;;;;;;;16.13;8.50;;;;;;;;;;4985301;28;20362;-76
2021/10/14 14:02:47;;;;;;;17.85;8.88;;;;;;;;;;4985555;28;20034;-75
2021/10/14 14:05:13;;;;;;;15.68;8.23;;;;;;;;;;4987020;28;20507;-75
2021/10/14 14:07:41;;;;;;;18.55;8.05;;;;;;;;;;4990887;28;20389;-75
2021/10/14 14:10:07;;;;;;;18.20;8.45;;;;;;;;;;4986846;28;20105;-75
2021/10/14 14:12:33;;;;;;;14.02;7.53;;;;;;;;;;4990020;28;20038;-76
2021/10/14 14:17:35;;;;;;;19.15;8.20;;;;;;;;;;4354563;22;20050;-71
2021/10/14 14:20:01;;;;;;;20.40;8.35;;;;;;;;;;5023723;28;20083;-69
2021/10/14 14:22:27;;;;;;;16.60;7.25;;;;;;;;;;5023008;28;20556;-72
2021/10/14 14:24:53;;;;;;;15.48;7.65;;;;;;;;;;5022130;28;20026;-71